Time;durP1;ratioP1;P1;durP2;ratioP2;P2;SDS_P1;SDS_P2;PMS_P1;PMS_P2;Temp;Humidity;BMP_temperature;BMP_pressure;BME280_temperature;BME280_humidity;BME280_pressure;Samples;Min_cycle;Max_cycle;Signal;HPM_P1;HPM_P2
2023/06/12 00:01:09;;;;;;;2.35;2.05;;;26.10;47.90;;;;;;5097489;28;20060;-80
2023/06/12 00:03:35;;;;;;;2.60;2.40;;;26.20;48.10;;;;;;5096461;28;20036;-80
2023/06/12 00:06:02;;;;;;;2.78;2.20;;;26.20;48.10;;;;;;5097441;28;20032;-80
2023/06/12 00:08:31;;;;;;;3.72;2.75;;;26.20;47.90;;;;;;5096637;28;20055;-80
2023/06/12 00:10:57;;;;;;;3.95;2.38;;;26.20;48.10;;;;;;5096457;28;20428;-79
2023/06/12 00:13:24;;;;;;;7.15;2.58;;;26.10;48.10;;;;;;5079294;28;20101;-80
2023/06/12 00:15:50;;;;;;;4.95;2.70;;;26.10;48.00;;;;;;5097433;28;20035;-80
2023/06/12 00:18:16;;;;;;;8.48;2.55;;;26.10;48.10;;;;;;5097442;28;20032;-80
2023/06/12 00:20:41;;;;;;;3.05;2.60;;;26.00;48.10;;;;;;5095541;28;20373;-80
2023/06/12 00:23:11;;;;;;;2.95;2.05;;;26.00;48.20;;;;;;5096949;28;20028;-80
2023/06/12 00:25:38;;;;;;;3.60;2.75;;;26.00;48.40;;;;;;5095529;28;20062;-80
2023/06/12 00:28:04;;;;;;;5.00;2.67;;;26.00;48.10;;;;;;5078848;28;20025;-80
2023/06/12 00:30:30;;;;;;;3.75;2.53;;;25.90;48.20;;;;;;5095770;28;20029;-80
2023/06/12 00:32:56;;;;;;;4.97;2.50;;;25.80;48.40;;;;;;5096454;28;20054;-80
2023/06/12 00:35:21;;;;;;;6.75;2.42;;;25.90;48.50;;;;;;5095694;28;20032;-80
2023/06/12 00:37:49;;;;;;;3.42;2.30;;;25.90;48.70;;;;;;5096863;28;20107;-81
2023/06/12 00:40:15;;;;;;;2.90;2.53;;;25.90;48.40;;;;;;5096822;28;20023;-81
2023/06/12 00:42:45;;;;;;;5.00;2.28;;;25.90;48.30;;;;;;5096528;28;20081;-80
2023/06/12 00:45:14;;;;;;;4.32;2.65;;;25.90;48.60;;;;;;5095072;28;20062;-81
2023/06/12 00:47:40;;;;;;;4.97;2.30;;;25.80;48.30;;;;;;5095342;28;20035;-80
2023/06/12 00:50:11;;;;;;;3.05;2.60;;;25.70;48.60;;;;;;5096427;28;20486;-80
2023/06/12 00:52:39;;;;;;;2.83;2.53;;;25.70;48.60;;;;;;5095548;28;20031;-80
2023/06/12 00:55:06;;;;;;;4.22;2.38;;;25.70;48.70;;;;;;5096393;28;20086;-80
2023/06/12 00:57:32;;;;;;;3.03;2.72;;;25.60;48.80;;;;;;5095003;28;20025;-80
2023/06/12 01:00:00;;;;;;;4.70;2.50;;;25.60;48.90;;;;;;5096269;28;20024;-80
2023/06/12 01:02:26;;;;;;;5.13;2.70;;;25.60;48.90;;;;;;5094944;28;20058;-80
2023/06/12 01:04:52;;;;;;;3.47;2.30;;;25.60;48.90;;;;;;5094863;28;20028;-80
2023/06/12 01:07:44;;;;;;;4.28;2.72;;;25.60;48.90;;;;;;5096499;28;20028;-80
2023/06/12 01:10:33;;;;;;;3.77;2.13;;;25.60;48.90;;;;;;5096198;28;20028;-80
2023/06/12 01:13:00;;;;;;;3.35;2.75;;;25.60;49.10;;;;;;5096084;28;20265;-80
2023/06/12 01:15:25;;;;;;;5.18;1.80;;;25.60;48.90;;;;;;5096033;28;20094;-80
2023/06/12 01:17:51;;;;;;;2.90;2.25;;;25.60;49.40;;;;;;5095704;28;20472;-80
2023/06/12 01:20:17;;;;;;;3.90;2.45;;;25.70;49.50;;;;;;5094773;28;20028;-80
2023/06/12 01:22:58;;;;;;;3.88;2.60;;;25.60;49.30;;;;;;5095831;28;20039;-80
2023/06/12 01:25:32;;;;;;;3.65;2.38;;;25.70;49.20;;;;;;5095968;28;20487;-80
2023/06/12 01:28:11;;;;;;;3.63;2.50;;;25.70;49.30;;;;;;5095119;28;20107;-80
2023/06/12 01:31:06;;;;;;;3.53;2.45;;;25.70;49.40;;;;;;5095177;28;20491;-80
2023/06/12 01:33:38;;;;;;;5.70;2.80;;;25.70;49.40;;;;;;5096167;28;20028;-80
2023/06/12 01:36:07;;;;;;;2.80;2.20;;;25.70;49.10;;;;;;5095947;28;20016;-80
2023/06/12 01:38:35;;;;;;;3.38;2.50;;;25.60;49.40;;;;;;5095839;28;20028;-80
2023/06/12 01:41:04;;;;;;;2.30;1.92;;;25.60;49.90;;;;;;5094582;28;20463;-80
2023/06/12 01:43:30;;;;;;;5.55;2.33;;;25.60;50.10;;;;;;5096365;28;20036;-80
2023/06/12 01:45:56;;;;;;;3.15;2.30;;;25.60;49.90;;;;;;5094701;28;20078;-80
2023/06/12 01:48:22;;;;;;;2.60;2.40;;;25.60;50.10;;;;;;5094526;28;20032;-80
2023/06/12 01:50:47;;;;;;;4.60;2.00;;;25.60;50.00;;;;;;5095272;28;20147;-81
2023/06/12 01:53:15;;;;;;;3.85;2.33;;;25.60;49.90;;;;;;5095085;28;20476;-80
2023/06/12 01:55:41;;;;;;;4.90;2.67;;;25.50;49.90;;;;;;5077527;28;20060;-80
2023/06/12 01:58:08;;;;;;;3.35;2.22;;;25.50;49.50;;;;;;5094533;28;20496;-80
2023/06/12 02:00:35;;;;;;;3.80;2.88;;;25.40;49.50;;;;;;5094328;28;20028;-80
2023/06/12 02:03:01;;;;;;;3.17;2.25;;;25.30;49.20;;;;;;5093719;28;20032;-80
2023/06/12 02:05:27;;;;;;;3.15;2.15;;;25.20;49.50;;;;;;5094628;28;20420;-80
2023/06/12 02:07:53;;;;;;;5.03;2.30;;;25.20;49.50;;;;;;5095169;28;20086;-80
2023/06/12 02:10:18;;;;;;;3.15;2.47;;;25.20;49.80;;;;;;5095422;28;20150;-80
2023/06/12 02:12:44;;;;;;;7.90;2.58;;;25.20;49.80;;;;;;5094408;28;20028;-80
2023/06/12 02:15:11;;;;;;;2.85;2.42;;;25.20;49.80;;;;;;5094519;28;20594;-79
2023/06/12 02:17:37;;;;;;;3.67;2.50;;;25.20;49.60;;;;;;5094241;28;20464;-80
2023/06/12 02:20:04;;;;;;;3.83;2.75;;;25.10;49.60;;;;;;5093895;28;20028;-80
2023/06/12 02:22:30;;;;;;;3.10;2.05;;;25.00;49.50;;;;;;5094933;28;20028;-80
2023/06/12 02:24:56;;;;;;;3.45;2.53;;;25.10;50.00;;;;;;5093868;28;20036;-80
2023/06/12 02:27:23;;;;;;;2.33;2.13;;;25.10;50.10;;;;;;5094294;28;20035;-80
2023/06/12 02:29:49;;;;;;;4.03;2.15;;;25.10;50.10;;;;;;5094762;28;20028;-80
2023/06/12 02:32:15;;;;;;;3.45;2.30;;;25.10;50.10;;;;;;5076769;28;20028;-80
2023/06/12 02:34:40;;;;;;;3.78;2.30;;;25.10;49.70;;;;;;5094743;28;20024;-79
2023/06/12 02:37:10;;;;;;;4.03;2.72;;;25.10;50.20;;;;;;5095162;28;20028;-80
2023/06/12 02:39:35;;;;;;;2.25;1.80;;;25.00;49.20;;;;;;5094051;28;20077;-80
2023/06/12 02:42:01;;;;;;;4.70;2.20;;;24.90;49.50;;;;;;5094754;28;20024;-80
2023/06/12 02:44:27;;;;;;;3.00;2.15;;;24.80;49.80;;;;;;5094788;28;20039;-80
2023/06/12 02:46:55;;;;;;;2.58;2.20;;;24.80;50.10;;;;;;5078254;28;20059;-80
2023/06/12 02:49:22;;;;;;;3.05;2.25;;;24.90;50.50;;;;;;5094606;28;20062;-80
2023/06/12 02:51:48;;;;;;;3.40;2.50;;;24.90;50.00;;;;;;5077799;28;20028;-81
2023/06/12 02:54:17;;;;;;;3.17;2.28;;;24.80;50.10;;;;;;5094682;28;20511;-81
2023/06/12 02:56:46;;;;;;;3.90;2.67;;;24.80;50.60;;;;;;5094802;28;20216;-80
2023/06/12 02:59:22;;;;;;;4.28;2.15;;;24.80;50.00;;;;;;5094978;28;20020;-80
2023/06/12 03:01:47;;;;;;;2.90;2.28;;;24.80;49.80;;;;;;5093905;28;20024;-80
2023/06/12 03:04:20;;;;;;;3.75;2.38;;;24.70;49.80;;;;;;5093180;28;20051;-80
2023/06/12 03:06:52;;;;;;;2.60;2.20;;;24.70;50.10;;;;;;5093308;28;20032;-80
2023/06/12 03:09:18;;;;;;;4.07;2.75;;;24.70;49.80;;;;;;5093278;28;20020;-80
2023/06/12 03:11:44;;;;;;;2.40;2.20;;;24.60;49.80;;;;;;5093362;28;20081;-80
2023/06/12 03:14:12;;;;;;;3.55;2.42;;;24.50;50.20;;;;;;5093372;28;20119;-80
2023/06/12 03:16:38;;;;;;;4.93;2.67;;;24.40;50.30;;;;;;5094393;28;20025;-80
2023/06/12 03:19:04;;;;;;;2.80;2.40;;;24.40;50.70;;;;;;5093607;28;20038;-80
2023/06/12 03:21:29;;;;;;;5.07;2.33;;;24.40;50.70;;;;;;5093265;28;20124;-80
2023/06/12 03:23:56;;;;;;;5.13;2.50;;;24.50;50.80;;;;;;5093280;28;20361;-80
2023/06/12 03:26:22;;;;;;;4.03;2.50;;;24.50;50.60;;;;;;5094427;28;20035;-80
2023/06/12 03:28:49;;;;;;;4.40;2.55;;;24.50;50.40;;;;;;5094296;28;20103;-80
2023/06/12 03:31:15;;;;;;;3.40;2.40;;;24.50;50.60;;;;;;5093769;28;20043;-80
2023/06/12 03:33:40;;;;;;;3.17;2.17;;;24.50;51.20;;;;;;5094188;28;20464;-80
2023/06/12 03:36:07;;;;;;;4.55;2.67;;;24.50;50.80;;;;;;5094143;28;20077;-80
2023/06/12 03:38:33;;;;;;;2.55;2.35;;;24.50;50.30;;;;;;5092637;28;20039;-79
2023/06/12 03:40:58;;;;;;;2.35;1.92;;;24.50;50.40;;;;;;5093246;28;20032;-80
2023/06/12 03:43:24;;;;;;;2.80;2.40;;;24.50;50.80;;;;;;5093612;28;20039;-80
2023/06/12 03:45:50;;;;;;;3.83;2.38;;;24.50;50.90;;;;;;5093841;28;20032;-79
2023/06/12 03:48:16;;;;;;;5.25;2.53;;;24.40;50.40;;;;;;5094268;28;20103;-80
2023/06/12 03:50:41;;;;;;;6.93;2.80;;;24.30;50.90;;;;;;5094139;28;20055;-80
2023/06/12 03:53:07;;;;;;;4.97;2.70;;;24.20;50.50;;;;;;5093228;28;20065;-80
2023/06/12 03:55:34;;;;;;;4.75;2.40;;;24.20;50.60;;;;;;5092064;28;20070;-80
2023/06/12 03:58:01;;;;;;;7.13;3.15;;;24.10;50.80;;;;;;5075899;28;20119;-80
2023/06/12 04:00:26;;;;;;;2.33;2.13;;;24.10;51.00;;;;;;5093765;28;20032;-80
2023/06/12 04:02:54;;;;;;;3.72;2.67;;;24.10;50.80;;;;;;5092280;28;20490;-81
2023/06/12 04:05:20;;;;;;;2.95;2.50;;;24.20;51.00;;;;;;5092961;28;20036;-80
2023/06/12 04:07:46;;;;;;;4.18;2.30;;;24.20;50.60;;;;;;5093193;28;20539;-80
2023/06/12 04:10:12;;;;;;;3.53;2.30;;;24.10;51.00;;;;;;5092302;28;20067;-80
2023/06/12 04:12:37;;;;;;;3.38;2.38;;;24.00;51.40;;;;;;5093644;28;20134;-80
2023/06/12 04:15:04;;;;;;;2.85;2.45;;;24.10;51.10;;;;;;5093799;28;20115;-80
2023/06/12 04:17:30;;;;;;;6.10;2.85;;;24.00;51.40;;;;;;5092187;28;20118;-80
2023/06/12 04:19:56;;;;;;;2.95;2.42;;;24.10;51.70;;;;;;5092971;28;20055;-80
2023/06/12 04:22:25;;;;;;;3.08;2.13;;;24.10;51.40;;;;;;5097612;28;20028;-80
2023/06/12 04:24:52;;;;;;;2.83;1.92;;;24.10;51.50;;;;;;5097233;28;20077;-80
2023/06/12 04:27:18;;;;;;;3.00;2.60;;;24.20;51.70;;;;;;5097289;28;20028;-80
2023/06/12 04:29:45;;;;;;;3.05;2.30;;;24.20;51.70;;;;;;5096868;28;20028;-80
2023/06/12 04:32:13;;;;;;;3.30;2.60;;;24.20;51.70;;;;;;5095553;28;20028;-80
2023/06/12 04:34:45;;;;;;;3.22;2.75;;;24.30;51.50;;;;;;5096692;28;20028;-80
2023/06/12 04:37:13;;;;;;;3.67;2.50;;;24.30;51.10;;;;;;5096259;28;20089;-80
2023/06/12 04:39:40;;;;;;;3.22;2.53;;;24.20;51.50;;;;;;5096163;28;20028;-79
2023/06/12 04:42:07;;;;;;;3.33;2.70;;;24.20;51.60;;;;;;5096836;28;20030;-80
2023/06/12 04:44:34;;;;;;;2.80;2.38;;;24.20;51.70;;;;;;5095981;28;20074;-80
2023/06/12 04:47:04;;;;;;;5.57;2.60;;;24.20;52.00;;;;;;5096712;28;20111;-80
2023/06/12 04:49:32;;;;;;;4.05;2.70;;;24.20;51.90;;;;;;5095960;28;20450;-80
2023/06/12 04:52:00;;;;;;;4.00;2.30;;;24.30;51.90;;;;;;5094877;28;20067;-81
2023/06/12 04:54:30;;;;;;;2.90;2.60;;;24.30;51.80;;;;;;5095000;28;20028;-80
2023/06/12 04:56:57;;;;;;;3.90;2.30;;;24.30;51.90;;;;;;5095622;28;20024;-80
2023/06/12 04:59:22;;;;;;;3.90;2.30;;;24.30;51.90;;;;;;5095326;28;20028;-80
2023/06/12 05:01:48;;;;;;;6.85;2.88;;;24.20;52.10;;;;;;5096139;28;20055;-81
2023/06/12 05:04:14;;;;;;;4.30;2.22;;;24.30;52.30;;;;;;5094916;28;20353;-81
2023/06/12 05:06:40;;;;;;;2.83;2.47;;;24.30;51.90;;;;;;5094913;28;20426;-81
2023/06/12 05:09:07;;;;;;;2.90;2.30;;;24.40;52.20;;;;;;5078246;28;20481;-80
2023/06/12 05:11:33;;;;;;;6.38;2.63;;;24.40;52.10;;;;;;5096125;28;20185;-80
2023/06/12 05:13:59;;;;;;;6.15;2.55;;;24.40;52.10;;;;;;5096411;28;20028;-80
2023/06/12 05:16:25;;;;;;;4.63;2.50;;;24.40;52.00;;;;;;5078092;28;20039;-80
2023/06/12 05:18:51;;;;;;;3.60;2.58;;;24.40;52.40;;;;;;5095684;28;20052;-80
2023/06/12 05:21:19;;;;;;;4.47;2.47;;;24.40;52.30;;;;;;5095638;28;20483;-80
2023/06/12 05:23:44;;;;;;;3.65;2.85;;;24.50;52.20;;;;;;5095006;28;20028;-80
2023/06/12 05:26:10;;;;;;;4.43;3.03;;;24.50;51.90;;;;;;5095923;28;20372;-80
2023/06/12 05:28:36;;;;;;;4.93;2.85;;;24.40;51.80;;;;;;5078084;28;20082;-80
2023/06/12 05:31:04;;;;;;;4.57;2.30;;;24.30;52.00;;;;;;5094861;28;20028;-79
2023/06/12 05:33:30;;;;;;;7.55;3.20;;;24.30;52.30;;;;;;5093934;28;20036;-80
2023/06/12 05:35:56;;;;;;;3.58;2.90;;;24.40;51.80;;;;;;5094770;28;20031;-79
2023/06/12 05:38:22;;;;;;;4.90;3.28;;;24.20;52.10;;;;;;5094760;28;20031;-80
2023/06/12 05:40:47;;;;;;;3.90;3.00;;;24.20;52.30;;;;;;5095321;28;20121;-80
2023/06/12 05:43:13;;;;;;;4.90;2.80;;;24.20;52.60;;;;;;5094425;28;20119;-80
2023/06/12 05:45:39;;;;;;;4.00;2.63;;;24.20;52.50;;;;;;5096070;28;20028;-80
2023/06/12 05:48:05;;;;;;;2.80;2.50;;;24.30;52.40;;;;;;5095499;28;20072;-80
2023/06/12 05:50:30;;;;;;;5.38;2.85;;;24.40;52.50;;;;;;5095599;28;20032;-80
2023/06/12 05:52:56;;;;;;;4.47;2.75;;;24.40;52.20;;;;;;5094259;28;20058;-80
2023/06/12 05:55:22;;;;;;;3.08;2.42;;;24.50;52.20;;;;;;5077372;28;20549;-80
2023/06/12 05:57:49;;;;;;;6.07;3.03;;;24.60;52.50;;;;;;5096911;28;20267;-80
2023/06/12 06:00:16;;;;;;;3.35;2.80;;;24.60;53.40;;;;;;5097471;28;20036;-78
2023/06/12 06:02:45;;;;;;;3.85;2.50;;;24.70;52.70;;;;;;5097131;28;20039;-78
2023/06/12 06:05:11;;;;;;;7.97;3.38;;;24.70;54.10;;;;;;5097688;28;20031;-79
2023/06/12 06:07:36;;;;;;;7.43;3.70;;;24.80;54.00;;;;;;5096423;28;20487;-80
2023/06/12 06:10:05;;;;;;;6.18;3.53;;;24.90;51.80;;;;;;5095857;28;20032;-80
2023/06/12 06:12:31;;;;;;;11.27;3.47;;;24.90;51.10;;;;;;5095990;28;20056;-81
2023/06/12 06:14:56;;;;;;;5.25;3.15;;;25.00;51.60;;;;;;5096241;28;20028;-80
2023/06/12 06:17:23;;;;;;;6.68;3.30;;;25.00;51.60;;;;;;5094816;28;20028;-80
2023/06/12 06:19:49;;;;;;;5.25;3.50;;;25.10;50.80;;;;;;5096178;28;20154;-81
2023/06/12 06:22:17;;;;;;;7.68;3.17;;;25.10;50.80;;;;;;5100409;28;20421;-80
2023/06/12 06:24:43;;;;;;;6.65;2.83;;;25.10;50.40;;;;;;5096465;28;20051;-81
2023/06/12 06:27:09;;;;;;;8.55;3.50;;;25.20;50.50;;;;;;5095492;28;20481;-81
2023/06/12 06:29:35;;;;;;;3.80;3.00;;;25.20;50.60;;;;;;5094890;28;20059;-80
2023/06/12 06:32:00;;;;;;;5.70;3.20;;;25.30;50.50;;;;;;5093530;28;20077;-81
2023/06/12 06:34:27;;;;;;;4.25;2.80;;;25.40;50.30;;;;;;5095150;28;20035;-79
2023/06/12 06:36:53;;;;;;;4.07;3.08;;;25.40;50.60;;;;;;5095089;28;20404;-82
2023/06/12 06:39:18;;;;;;;5.88;2.58;;;25.50;50.80;;;;;;5095108;28;20029;-82
2023/06/12 06:41:44;;;;;;;5.50;2.88;;;25.50;50.70;;;;;;5110381;28;20058;-77
2023/06/12 06:44:10;;;;;;;6.38;3.33;;;25.60;50.40;;;;;;5111274;28;20490;-76
2023/06/12 06:46:35;;;;;;;5.85;3.05;;;25.60;50.50;;;;;;5107067;28;20050;-81
2023/06/12 06:49:01;;;;;;;7.53;3.55;;;25.60;50.60;;;;;;5108850;28;20054;-82
2023/06/12 06:51:29;;;;;;;9.30;3.30;;;25.70;50.70;;;;;;5111321;28;20024;-81
2023/06/12 06:53:55;;;;;;;6.38;3.03;;;25.70;50.40;;;;;;5114092;28;20087;-81
2023/06/12 06:56:21;;;;;;;7.32;3.15;;;25.70;50.80;;;;;;5111862;28;20097;-80
2023/06/12 06:58:48;;;;;;;11.18;3.63;;;25.90;50.90;;;;;;5215269;22;20049;-83
2023/06/12 07:01:15;;;;;;;7.35;3.50;;;25.90;50.40;;;;;;5068449;28;20024;-83
2023/06/12 07:03:41;;;;;;;4.80;3.20;;;25.90;50.80;;;;;;5112210;28;20118;-75
2023/06/12 07:06:07;;;;;;;13.68;3.60;;;25.90;50.90;;;;;;5130569;22;20159;-83
2023/06/12 07:08:33;;;;;;;4.25;3.42;;;25.90;51.20;;;;;;5089040;28;20395;-83
2023/06/12 07:10:59;;;;;;;9.43;3.92;;;25.90;50.80;;;;;;5092981;28;20043;-79
2023/06/12 07:13:24;;;;;;;8.27;3.85;;;25.90;51.40;;;;;;5074618;28;20037;-81
2023/06/12 07:15:51;;;;;;;5.95;3.47;;;25.90;51.30;;;;;;5162972;22;20070;-77
2023/06/12 07:18:17;;;;;;;7.00;3.53;;;26.00;51.50;;;;;;5149033;22;20096;-78
2023/06/12 07:20:43;;;;;;;7.57;3.33;;;26.10;51.10;;;;;;5067235;28;20016;-78
2023/06/12 07:23:09;;;;;;;8.40;3.60;;;26.10;51.30;;;;;;5112673;22;20034;-78
2023/06/12 07:25:34;;;;;;;10.90;3.70;;;26.20;51.70;;;;;;5118870;22;20063;-79
2023/06/12 07:28:00;;;;;;;5.28;3.40;;;26.20;51.30;;;;;;5147254;22;20075;-81
2023/06/12 07:30:26;;;;;;;4.70;3.58;;;26.30;50.70;;;;;;5092838;22;20037;-79
2023/06/12 07:32:52;;;;;;;6.45;3.25;;;26.20;51.40;;;;;;5073522;28;20029;-81
2023/06/12 07:35:20;;;;;;;8.70;3.90;;;26.30;51.50;;;;;;5093099;22;20037;-81
2023/06/12 07:37:46;;;;;;;5.72;3.80;;;26.40;51.80;;;;;;5079302;28;20074;-78
2023/06/12 07:40:12;;;;;;;4.80;3.60;;;26.40;51.50;;;;;;5084009;28;20008;-81
2023/06/12 07:42:38;;;;;;;6.20;3.42;;;26.50;51.30;;;;;;5047870;28;20092;-82
2023/06/12 07:45:07;;;;;;;8.07;3.50;;;26.70;50.90;;;;;;5375990;22;20520;-73
2023/06/12 07:47:32;;;;;;;10.48;4.03;;;26.70;50.80;;;;;;5083593;28;20069;-82
2023/06/12 07:49:59;;;;;;;7.72;3.70;;;26.90;52.00;;;;;;5077726;28;20069;-82
2023/06/12 07:52:24;;;;;;;6.05;3.55;;;27.00;52.50;;;;;;5067767;28;20083;-83
2023/06/12 07:54:50;;;;;;;6.93;3.85;;;27.10;51.30;;;;;;5058001;28;20032;-82
2023/06/12 07:57:16;;;;;;;5.72;3.63;;;27.10;51.20;;;;;;5058350;28;20116;-81
2023/06/12 07:59:44;;;;;;;5.10;3.70;;;27.20;51.00;;;;;;5062283;28;20024;-83
2023/06/12 08:02:10;;;;;;;4.07;3.67;;;27.10;51.70;;;;;;5066849;28;20033;-83
2023/06/12 08:04:40;;;;;;;6.30;3.40;;;27.20;51.20;;;;;;5066454;28;20037;-79
2023/06/12 08:07:10;;;;;;;4.43;3.40;;;27.20;50.90;;;;;;5054776;28;20017;-79
2023/06/12 08:09:38;;;;;;;4.70;3.42;;;27.30;50.80;;;;;;5068609;28;20021;-80
2023/06/12 08:12:04;;;;;;;4.63;3.33;;;27.50;50.80;;;;;;5071692;28;20028;-80
2023/06/12 08:14:31;;;;;;;4.32;3.25;;;27.50;50.80;;;;;;5060781;28;20105;-80
2023/06/12 08:16:58;;;;;;;3.90;3.17;;;27.70;50.80;;;;;;5067939;28;20021;-79
2023/06/12 08:19:24;;;;;;;5.55;3.15;;;27.80;50.90;;;;;;5069504;28;20102;-79
2023/06/12 08:21:50;;;;;;;3.67;2.92;;;27.90;50.70;;;;;;5055303;28;20017;-79
2023/06/12 08:24:16;;;;;;;7.80;3.75;;;28.00;50.10;;;;;;5065536;28;20048;-78
2023/06/12 08:26:41;;;;;;;10.40;4.25;;;28.20;49.80;;;;;;5063412;28;20025;-81
2023/06/12 08:29:08;;;;;;;7.45;3.63;;;28.20;48.90;;;;;;5067410;28;20077;-81
2023/06/12 08:31:34;;;;;;;6.68;3.92;;;28.20;49.60;;;;;;5063284;28;20029;-79
2023/06/12 08:34:00;;;;;;;5.05;3.38;;;28.20;48.70;;;;;;5066262;28;20064;-82
2023/06/12 08:36:26;;;;;;;6.35;3.80;;;28.30;48.70;;;;;;5066932;28;20025;-81
2023/06/12 08:38:52;;;;;;;7.78;3.58;;;28.30;48.40;;;;;;5085088;28;20055;-80
2023/06/12 08:41:19;;;;;;;5.75;3.40;;;28.30;48.50;;;;;;5168568;22;20041;-78
2023/06/12 08:43:47;;;;;;;4.07;3.65;;;28.50;48.90;;;;;;5059223;28;20029;-80
2023/06/12 08:46:16;;;;;;;4.75;3.15;;;28.70;48.70;;;;;;5045197;28;20112;-82
2023/06/12 08:48:43;;;;;;;6.38;3.60;;;28.80;49.30;;;;;;5050479;28;20029;-83
2023/06/12 08:51:09;;;;;;;5.10;3.95;;;28.80;48.70;;;;;;5045665;28;20032;-82
2023/06/12 08:53:35;;;;;;;4.85;3.70;;;28.80;48.60;;;;;;5045666;28;20057;-82
2023/06/12 08:56:02;;;;;;;6.60;3.60;;;28.90;47.90;;;;;;5045707;28;20379;-81
2023/06/12 08:58:27;;;;;;;8.00;3.80;;;29.00;47.50;;;;;;5044900;28;20478;-82
2023/06/12 09:00:53;;;;;;;7.20;3.70;;;29.10;46.80;;;;;;5049688;28;20033;-81
2023/06/12 09:03:20;;;;;;;5.28;4.03;;;29.10;46.60;;;;;;5050978;28;20287;-81
2023/06/12 09:05:47;;;;;;;8.35;4.07;;;29.10;46.90;;;;;;5046934;28;20076;-80
2023/06/12 09:08:13;;;;;;;5.82;3.72;;;29.20;47.00;;;;;;5044912;28;20026;-81
2023/06/12 09:10:39;;;;;;;6.10;3.83;;;29.30;46.70;;;;;;5042808;28;20029;-81
2023/06/12 09:13:09;;;;;;;7.13;4.20;;;29.40;46.80;;;;;;5048389;28;20033;-79
2023/06/12 09:15:37;;;;;;;4.70;4.20;;;29.40;47.00;;;;;;5045464;28;20091;-80
2023/06/12 09:18:07;;;;;;;5.30;3.78;;;29.50;46.30;;;;;;5044057;28;20517;-80
2023/06/12 09:20:33;;;;;;;6.70;3.78;;;29.50;45.40;;;;;;5045097;28;20033;-83
2023/06/12 09:23:04;;;;;;;3.83;3.50;;;29.60;45.50;;;;;;5052225;28;20033;-81
2023/06/12 09:25:34;;;;;;;5.47;3.35;;;29.80;45.60;;;;;;5042455;28;20030;-80
2023/06/12 09:28:03;;;;;;;5.15;3.65;;;29.80;45.00;;;;;;5035883;28;20025;-78
2023/06/12 09:30:31;;;;;;;6.85;4.30;;;29.90;45.90;;;;;;5018969;28;20042;-79
2023/06/12 09:32:59;;;;;;;6.72;3.53;;;30.00;44.90;;;;;;5034510;28;20033;-79
2023/06/12 09:35:25;;;;;;;7.35;3.65;;;30.10;43.70;;;;;;5034093;28;20028;-79
2023/06/12 09:37:50;;;;;;;6.80;3.70;;;30.10;43.70;;;;;;5035019;28;20025;-79
2023/06/12 09:40:16;;;;;;;6.40;3.60;;;30.10;44.40;;;;;;5034134;28;20104;-79
2023/06/12 09:42:43;;;;;;;4.55;3.42;;;30.20;42.90;;;;;;5033998;28;20060;-79
2023/06/12 09:45:13;;;;;;;7.97;3.42;;;30.20;42.50;;;;;;5016892;28;20040;-79
2023/06/12 09:47:41;;;;;;;4.78;3.50;;;30.30;43.20;;;;;;5034129;28;20470;-78
2023/06/12 09:50:07;;;;;;;4.70;3.33;;;30.30;42.30;;;;;;5034033;28;20410;-79
2023/06/12 09:52:34;;;;;;;5.80;3.50;;;30.30;42.70;;;;;;5016357;28;20068;-80
2023/06/12 09:55:05;;;;;;;3.80;3.38;;;30.40;43.40;;;;;;5033047;28;20029;-79
2023/06/12 09:57:35;;;;;;;6.67;3.40;;;30.40;43.00;;;;;;5034218;28;20033;-79
2023/06/12 10:00:02;;;;;;;5.07;3.35;;;30.50;41.40;;;;;;5033928;28;20259;-79
2023/06/12 10:02:29;;;;;;;6.10;3.00;;;30.70;40.70;;;;;;5033016;28;20030;-79
2023/06/12 10:05:02;;;;;;;3.15;2.85;;;30.70;40.20;;;;;;5033889;28;20040;-79
2023/06/12 10:07:29;;;;;;;8.02;3.33;;;30.80;40.00;;;;;;5032588;28;20029;-79
2023/06/12 10:09:56;;;;;;;4.75;3.17;;;30.90;39.60;;;;;;5032262;28;20484;-79
2023/06/12 10:12:23;;;;;;;6.30;2.92;;;31.00;38.30;;;;;;5033849;28;20029;-79
2023/06/12 10:14:50;;;;;;;3.67;3.20;;;31.00;38.90;;;;;;5032527;28;20033;-80
2023/06/12 10:17:17;;;;;;;4.03;3.13;;;31.00;37.90;;;;;;5032364;28;20029;-80
2023/06/12 10:19:47;;;;;;;5.38;3.10;;;30.90;38.70;;;;;;5031551;28;20030;-79
2023/06/12 10:22:13;;;;;;;3.70;3.13;;;31.00;39.40;;;;;;5032160;28;20033;-81
2023/06/12 10:24:40;;;;;;;8.07;3.22;;;31.20;38.80;;;;;;5033374;28;20037;-77
2023/06/12 10:27:07;;;;;;;5.43;2.80;;;31.30;38.50;;;;;;5033794;28;20045;-80
2023/06/12 10:29:38;;;;;;;6.15;3.00;;;31.30;39.00;;;;;;5033439;28;20029;-78
2023/06/12 10:32:05;;;;;;;3.92;3.15;;;31.40;39.30;;;;;;5033418;28;20021;-79
2023/06/12 10:34:33;;;;;;;4.88;2.80;;;31.50;39.80;;;;;;5032850;28;20036;-78
2023/06/12 10:37:22;;;;;;;3.78;2.83;;;31.60;39.50;;;;;;5032064;28;20091;-78
2023/06/12 10:39:59;;;;;;;4.18;3.30;;;31.60;39.30;;;;;;5032921;28;20443;-78
2023/06/12 10:42:42;;;;;;;5.03;3.10;;;31.60;39.00;;;;;;4994601;28;1117040;-78
2023/06/12 10:45:19;;;;;;;3.88;3.40;;;31.60;39.50;;;;;;5033930;28;20047;-79
2023/06/12 10:48:06;;;;;;;6.57;3.72;;;31.60;39.60;;;;;;5032901;28;20029;-78
2023/06/12 10:50:35;;;;;;;4.63;3.10;;;31.60;40.50;;;;;;5034026;28;20103;-78
2023/06/12 10:53:13;;;;;;;6.88;2.97;;;31.60;39.70;;;;;;5033704;28;20036;-78
2023/06/12 10:55:39;;;;;;;7.65;3.47;;;31.70;40.10;;;;;;5033810;28;20026;-78
2023/06/12 10:58:08;;;;;;;6.05;3.63;;;31.60;40.00;;;;;;5032352;28;20537;-79
2023/06/12 11:00:42;;;;;;;14.93;4.75;;;31.70;39.90;;;;;;5033481;28;20547;-78
2023/06/12 11:03:36;;;;;;;5.20;2.90;;;31.80;40.90;;;;;;5032898;28;20038;-79
2023/06/12 11:06:13;;;;;;;4.60;3.25;;;31.80;39.60;;;;;;5028981;28;20033;-79
2023/06/12 11:08:42;;;;;;;7.88;3.40;;;32.00;40.80;;;;;;5032665;28;20025;-79
2023/06/12 11:11:09;;;;;;;4.82;3.30;;;32.10;41.10;;;;;;5032198;28;20029;-78
2023/06/12 11:13:39;;;;;;;4.93;3.45;;;32.10;40.10;;;;;;5033623;28;20060;-78
2023/06/12 11:16:05;;;;;;;3.30;3.00;;;32.10;41.00;;;;;;5032026;28;20504;-78
2023/06/12 11:18:31;;;;;;;6.97;3.65;;;32.20;41.60;;;;;;5031616;28;20026;-77
2023/06/12 11:20:57;;;;;;;8.68;3.50;;;32.30;41.40;;;;;;5031971;28;20037;-78
2023/06/12 11:23:24;;;;;;;5.78;3.10;;;32.20;42.30;;;;;;5033035;28;20041;-79
2023/06/12 11:25:53;;;;;;;6.60;4.25;;;32.00;42.00;;;;;;5032035;28;20041;-79
2023/06/12 11:28:25;;;;;;;6.78;3.28;;;32.00;41.70;;;;;;5031988;28;20124;-78
2023/06/12 11:30:56;;;;;;;4.97;3.15;;;32.10;41.60;;;;;;5031016;28;20028;-78
2023/06/12 11:33:22;;;;;;;3.20;2.90;;;32.30;42.50;;;;;;5015809;28;20161;-78
2023/06/12 11:35:50;;;;;;;5.30;3.53;;;32.40;41.80;;;;;;5031973;28;20075;-78
2023/06/12 11:38:21;;;;;;;7.53;3.35;;;32.40;42.10;;;;;;5032004;28;20038;-79
2023/06/12 11:40:48;;;;;;;6.05;3.33;;;32.50;42.30;;;;;;5033177;28;20053;-78
2023/06/12 11:43:19;;;;;;;5.53;2.97;;;32.50;42.30;;;;;;5016279;28;20041;-79
2023/06/12 11:45:45;;;;;;;4.27;3.67;;;32.50;42.60;;;;;;5033339;28;20037;-77
2023/06/12 11:48:16;;;;;;;7.32;3.67;;;32.60;42.30;;;;;;5032518;28;20028;-77
2023/06/12 11:50:46;;;;;;;7.30;3.80;;;32.50;42.20;;;;;;5032236;28;20111;-78
2023/06/12 11:53:13;;;;;;;4.50;3.58;;;32.40;42.20;;;;;;5033308;28;20406;-78
2023/06/12 11:55:39;;;;;;;5.15;3.22;;;32.50;42.50;;;;;;5033103;28;20402;-78
2023/06/12 11:58:05;;;;;;;5.05;3.33;;;32.50;43.00;;;;;;5032909;28;20037;-78
2023/06/12 12:00:33;;;;;;;3.65;3.30;;;32.40;42.80;;;;;;5032475;28;20037;-76
2023/06/12 12:03:02;;;;;;;7.07;3.42;;;32.50;43.30;;;;;;5031624;28;20065;-78
2023/06/12 12:05:34;;;;;;;5.35;3.50;;;32.50;43.20;;;;;;5031276;28;20497;-78
2023/06/12 12:08:03;;;;;;;3.92;2.90;;;32.70;43.80;;;;;;5033019;28;20116;-78
2023/06/12 12:10:37;;;;;;;3.35;3.00;;;32.70;42.80;;;;;;5032485;28;20546;-78
2023/06/12 12:13:03;;;;;;;4.97;3.30;;;32.50;42.10;;;;;;5033443;28;20033;-78
2023/06/12 12:15:31;;;;;;;7.05;3.30;;;32.40;42.60;;;;;;5033539;28;20040;-78
2023/06/12 12:17:57;;;;;;;4.53;3.05;;;32.50;43.30;;;;;;5031661;28;20068;-78
2023/06/12 12:20:25;;;;;;;3.55;3.25;;;32.50;42.90;;;;;;5031553;28;20532;-78
2023/06/12 12:23:02;;;;;;;3.47;3.00;;;32.40;42.50;;;;;;5031351;28;20034;-78
2023/06/12 12:25:29;;;;;;;4.13;3.08;;;32.20;42.70;;;;;;5032667;28;20076;-78
2023/06/12 12:27:59;;;;;;;6.55;2.67;;;32.10;43.00;;;;;;5031602;28;20060;-77
2023/06/12 12:30:26;;;;;;;9.13;2.70;;;32.10;42.60;;;;;;5033113;28;20051;-78
2023/06/12 12:32:53;;;;;;;5.15;3.30;;;32.30;42.50;;;;;;5030808;28;20026;-78
2023/06/12 12:35:20;;;;;;;4.03;3.20;;;32.50;42.50;;;;;;5014718;28;20038;-78
2023/06/12 12:37:47;;;;;;;6.50;3.15;;;32.60;42.80;;;;;;5031424;28;20021;-78
2023/06/12 12:40:14;;;;;;;3.85;2.80;;;32.80;42.10;;;;;;5032912;28;20116;-78
2023/06/12 12:42:47;;;;;;;5.50;3.33;;;33.00;42.10;;;;;;5034923;28;20493;-78
2023/06/12 12:45:16;;;;;;;3.30;3.00;;;33.00;41.90;;;;;;5036031;28;20128;-78
2023/06/12 12:47:48;;;;;;;4.00;3.20;;;33.00;41.50;;;;;;5034866;28;20032;-78